Time;durP1;ratioP1;P1;durP2;ratioP2;P2;SDS_P1;SDS_P2;PMS_P1;PMS_P2;Temp;Humidity;BMP_temperature;BMP_pressure;BME280_temperature;BME280_humidity;BME280_pressure;Samples;Min_cycle;Max_cycle;Signal;HPM_P1;HPM_P2
2023/05/18 00:01:18;;;;;;;12.73;3.50;;;14.20;89.40;;;;;;5032982;28;20021;-67
2023/05/18 00:03:43;;;;;;;11.32;3.05;;;14.10;89.50;;;;;;5032368;28;20109;-67
2023/05/18 00:06:09;;;;;;;7.97;2.38;;;14.10;89.60;;;;;;5033231;28;20100;-68
2023/05/18 00:08:37;;;;;;;9.30;2.75;;;14.00;89.20;;;;;;5033076;28;20091;-68
2023/05/18 00:11:03;;;;;;;7.30;2.08;;;14.10;89.10;;;;;;5033417;28;20414;-67
2023/05/18 00:13:29;;;;;;;8.20;1.98;;;14.00;88.70;;;;;;5032972;28;20092;-68
2023/05/18 00:15:55;;;;;;;8.13;2.28;;;14.10;88.30;;;;;;5032941;28;20025;-67
2023/05/18 00:18:22;;;;;;;7.53;2.10;;;14.00;88.30;;;;;;5032948;28;20017;-68
2023/05/18 00:20:57;;;;;;;8.43;2.15;;;14.00;88.10;;;;;;5033164;28;20029;-67
2023/05/18 00:23:24;;;;;;;8.15;2.42;;;14.00;87.80;;;;;;5032995;28;20374;-70
2023/05/18 00:25:49;;;;;;;8.77;2.28;;;14.00;87.90;;;;;;5032972;28;20039;-67
2023/05/18 00:28:16;;;;;;;7.80;2.47;;;14.00;88.10;;;;;;5032604;28;20124;-67
2023/05/18 00:30:42;;;;;;;6.25;2.20;;;13.80;88.30;;;;;;5032621;28;20025;-67
2023/05/18 00:33:07;;;;;;;7.47;2.17;;;13.80;88.20;;;;;;5032797;28;20071;-69
2023/05/18 00:35:33;;;;;;;6.88;2.10;;;13.80;88.40;;;;;;5032719;28;20032;-67
2023/05/18 00:37:58;;;;;;;7.72;2.35;;;13.80;88.40;;;;;;5032786;28;20032;-67
2023/05/18 00:40:26;;;;;;;9.80;2.50;;;13.80;88.40;;;;;;5032902;28;20032;-67
2023/05/18 00:42:52;;;;;;;12.60;2.35;;;13.80;88.50;;;;;;5032707;28;20466;-67
2023/05/18 00:45:17;;;;;;;8.23;2.50;;;13.70;88.90;;;;;;5032293;28;20068;-67
2023/05/18 00:47:43;;;;;;;9.38;2.50;;;13.70;88.80;;;;;;5035552;28;20078;-67
2023/05/18 00:50:09;;;;;;;7.38;2.08;;;13.70;89.00;;;;;;5043465;28;20022;-67
2023/05/18 00:52:36;;;;;;;12.20;2.65;;;13.70;89.10;;;;;;5032658;28;20032;-68
2023/05/18 00:55:03;;;;;;;12.23;2.55;;;13.80;88.70;;;;;;5032660;28;20048;-68
2023/05/18 00:57:28;;;;;;;6.70;2.20;;;13.80;88.10;;;;;;5033066;28;20375;-68
2023/05/18 00:59:55;;;;;;;8.77;2.78;;;13.70;89.10;;;;;;5031994;28;20024;-68
2023/05/18 01:02:22;;;;;;;8.18;2.50;;;13.70;88.90;;;;;;5032858;28;20100;-67
2023/05/18 01:04:48;;;;;;;12.38;3.20;;;13.70;89.20;;;;;;5032139;28;20037;-67
2023/05/18 01:07:15;;;;;;;9.23;2.67;;;13.60;89.20;;;;;;5032727;28;20045;-68
2023/05/18 01:09:41;;;;;;;8.50;2.85;;;13.70;89.30;;;;;;5032431;28;20032;-67
2023/05/18 01:12:36;;;;;;;8.13;3.03;;;13.60;89.10;;;;;;5032349;28;20029;-68
2023/05/18 01:15:09;;;;;;;10.93;2.92;;;13.60;89.00;;;;;;5032293;28;20109;-67
2023/05/18 01:17:42;;;;;;;8.32;3.28;;;13.60;89.10;;;;;;5032557;28;20110;-67
2023/05/18 01:20:20;;;;;;;9.20;3.03;;;13.60;88.90;;;;;;5032131;28;20048;-67
2023/05/18 01:22:56;;;;;;;6.97;2.58;;;13.50;89.40;;;;;;5032326;28;20026;-67
2023/05/18 01:25:45;;;;;;;10.23;2.88;;;13.60;89.00;;;;;;5031455;28;20025;-67
2023/05/18 01:28:16;;;;;;;10.23;3.05;;;13.50;89.70;;;;;;5031812;28;20056;-67
2023/05/18 01:30:42;;;;;;;8.43;3.65;;;13.40;89.50;;;;;;5032269;28;20029;-67
2023/05/18 01:33:09;;;;;;;10.85;3.38;;;13.50;89.50;;;;;;5032329;28;20036;-67
2023/05/18 01:35:40;;;;;;;10.45;3.05;;;13.50;89.30;;;;;;5032298;28;20018;-67
2023/05/18 01:38:06;;;;;;;8.45;3.22;;;13.50;89.40;;;;;;5032488;28;20320;-67
2023/05/18 01:40:53;;;;;;;8.45;3.05;;;13.40;89.40;;;;;;5032027;28;20017;-67
2023/05/18 01:43:22;;;;;;;8.20;3.05;;;13.40;89.60;;;;;;5032150;28;20024;-67
2023/05/18 01:45:54;;;;;;;8.35;2.75;;;13.50;89.50;;;;;;5031941;28;20036;-67
2023/05/18 01:48:23;;;;;;;13.88;3.80;;;13.40;89.90;;;;;;5039496;28;20040;-67
2023/05/18 01:50:50;;;;;;;10.75;3.35;;;13.30;89.70;;;;;;5037222;28;20404;-67
2023/05/18 01:53:31;;;;;;;11.55;3.47;;;13.20;90.00;;;;;;5032387;28;20104;-69
2023/05/18 01:55:58;;;;;;;7.43;2.38;;;13.20;90.20;;;;;;5031427;28;20025;-67
2023/05/18 01:58:25;;;;;;;11.45;3.17;;;13.20;90.10;;;;;;5031663;28;20025;-67
2023/05/18 02:00:50;;;;;;;9.52;3.50;;;13.10;90.10;;;;;;5034687;28;20471;-67
2023/05/18 02:03:16;;;;;;;10.68;3.33;;;13.00;90.40;;;;;;5035761;28;20040;-67
2023/05/18 02:05:41;;;;;;;11.68;3.05;;;13.10;90.10;;;;;;5035647;28;20061;-68
2023/05/18 02:08:07;;;;;;;8.70;2.78;;;13.20;90.10;;;;;;5035680;28;20053;-67
2023/05/18 02:10:33;;;;;;;7.30;2.85;;;13.20;90.10;;;;;;5035073;28;20434;-67
2023/05/18 02:12:58;;;;;;;9.32;2.72;;;13.20;90.00;;;;;;5034446;28;20057;-68
2023/05/18 02:15:24;;;;;;;11.57;2.88;;;13.10;90.20;;;;;;5035515;28;20017;-67
2023/05/18 02:17:49;;;;;;;9.98;2.95;;;13.10;90.20;;;;;;5035556;28;20036;-68
2023/05/18 02:20:18;;;;;;;12.27;3.22;;;13.00;90.40;;;;;;5035397;28;20209;-67
2023/05/18 02:22:44;;;;;;;7.90;2.75;;;13.10;90.10;;;;;;5035332;28;20018;-67
2023/05/18 02:25:10;;;;;;;8.25;2.80;;;13.00;90.30;;;;;;5034847;28;20036;-67
2023/05/18 02:27:36;;;;;;;8.77;2.80;;;13.00;90.30;;;;;;5035545;28;20034;-68
2023/05/18 02:30:07;;;;;;;11.00;3.22;;;12.90;90.50;;;;;;5035377;28;20061;-70
2023/05/18 02:32:37;;;;;;;7.07;2.53;;;12.80;90.60;;;;;;5035489;28;20068;-67
2023/05/18 02:35:04;;;;;;;10.73;3.22;;;12.70;90.70;;;;;;5035185;28;20032;-67
2023/05/18 02:37:33;;;;;;;9.73;2.90;;;12.80;90.50;;;;;;5035233;28;20390;-68
2023/05/18 02:40:01;;;;;;;8.20;2.60;;;12.80;90.50;;;;;;5035013;28;20029;-68
2023/05/18 02:42:27;;;;;;;9.18;3.00;;;12.90;90.50;;;;;;5034920;28;20540;-68
2023/05/18 02:44:52;;;;;;;8.93;2.72;;;12.80;90.60;;;;;;5034775;28;20057;-67
2023/05/18 02:47:18;;;;;;;6.72;2.47;;;12.80;90.50;;;;;;5033698;28;20470;-68
2023/05/18 02:49:43;;;;;;;12.02;3.25;;;12.60;90.80;;;;;;5034967;28;20104;-67
2023/05/18 02:52:09;;;;;;;8.15;2.92;;;12.70;90.70;;;;;;5034688;28;20063;-68
2023/05/18 02:54:35;;;;;;;8.10;2.83;;;12.70;90.70;;;;;;5034570;28;20495;-67
2023/05/18 02:57:00;;;;;;;10.65;2.80;;;12.70;90.70;;;;;;5034558;28;20025;-68
2023/05/18 02:59:26;;;;;;;7.53;2.67;;;12.70;90.60;;;;;;5034660;28;20505;-67
2023/05/18 03:01:51;;;;;;;7.07;2.72;;;12.60;90.90;;;;;;5034335;28;20021;-68
2023/05/18 03:04:17;;;;;;;8.30;2.97;;;12.80;90.60;;;;;;5034312;28;20036;-67
2023/05/18 03:06:45;;;;;;;7.43;2.65;;;12.80;90.60;;;;;;5034280;28;20414;-67
2023/05/18 03:09:11;;;;;;;12.25;3.50;;;12.60;90.80;;;;;;5034038;28;20030;-68
2023/05/18 03:11:37;;;;;;;6.75;2.88;;;12.60;90.90;;;;;;5034025;28;20022;-68
2023/05/18 03:14:02;;;;;;;12.95;3.10;;;12.50;91.00;;;;;;5034588;28;20026;-67
2023/05/18 03:16:28;;;;;;;10.93;3.10;;;12.50;91.00;;;;;;5034342;28;20422;-68
2023/05/18 03:18:54;;;;;;;8.65;2.97;;;12.50;91.00;;;;;;5034277;28;20147;-67
2023/05/18 03:21:20;;;;;;;7.97;3.08;;;12.60;91.00;;;;;;5034130;28;20053;-68
2023/05/18 03:23:46;;;;;;;11.00;2.63;;;12.70;90.90;;;;;;5034065;28;20025;-67
2023/05/18 03:26:12;;;;;;;10.25;3.10;;;12.50;90.80;;;;;;5034185;28;20029;-67
2023/05/18 03:28:38;;;;;;;11.57;3.45;;;12.50;91.00;;;;;;5033986;28;20039;-67
2023/05/18 03:31:03;;;;;;;8.00;3.13;;;12.40;91.00;;;;;;5034144;28;20536;-68
2023/05/18 03:33:29;;;;;;;7.32;2.50;;;12.50;90.90;;;;;;5034000;28;20494;-67
2023/05/18 03:35:55;;;;;;;9.32;2.92;;;12.50;90.90;;;;;;5033961;28;20029;-67
2023/05/18 03:38:20;;;;;;;7.32;2.60;;;12.40;90.90;;;;;;5033588;28;20445;-67
2023/05/18 03:40:46;;;;;;;8.70;3.03;;;12.40;90.90;;;;;;5033845;28;20024;-67
2023/05/18 03:43:12;;;;;;;10.43;3.17;;;12.50;90.90;;;;;;5033903;28;20029;-67
2023/05/18 03:45:37;;;;;;;9.32;2.53;;;12.40;91.00;;;;;;5033652;28;20467;-67
2023/05/18 03:48:03;;;;;;;8.75;3.00;;;12.40;90.70;;;;;;5033719;28;20028;-67
2023/05/18 03:50:29;;;;;;;7.82;2.83;;;12.30;90.90;;;;;;5033677;28;20021;-67
2023/05/18 03:52:55;;;;;;;9.70;3.00;;;12.40;91.00;;;;;;5033410;28;20052;-67
2023/05/18 03:55:21;;;;;;;11.90;2.97;;;12.50;90.80;;;;;;5033910;28;20405;-67
2023/05/18 03:57:47;;;;;;;7.18;2.60;;;12.40;90.80;;;;;;5033238;28;20040;-69
2023/05/18 04:00:14;;;;;;;7.45;2.67;;;12.40;90.80;;;;;;5033732;28;20060;-69
2023/05/18 04:02:40;;;;;;;11.00;2.88;;;12.30;91.00;;;;;;5033451;28;20076;-67
2023/05/18 04:05:06;;;;;;;9.82;3.15;;;12.30;91.00;;;;;;5033454;28;20049;-67
2023/05/18 04:07:31;;;;;;;8.85;2.22;;;12.30;90.90;;;;;;5033148;28;20115;-76
2023/05/18 04:09:57;;;;;;;6.10;2.78;;;12.40;90.70;;;;;;5033513;28;20064;-67
2023/05/18 04:12:23;;;;;;;7.93;2.90;;;12.60;90.30;;;;;;5033312;28;20024;-67
2023/05/18 04:14:48;;;;;;;11.02;2.80;;;12.50;90.30;;;;;;5033251;28;20025;-67
2023/05/18 04:17:21;;;;;;;6.57;2.53;;;12.60;90.20;;;;;;5033365;28;20028;-68
2023/05/18 04:19:47;;;;;;;;;;;12.40;90.50;;;;;;5033506;28;20036;-67
2023/05/18 04:22:12;;;;;;;7.30;2.33;;;12.60;90.10;;;;;;5032197;28;20369;-67
2023/05/18 04:24:40;;;;;;;8.23;2.90;;;12.50;90.10;;;;;;5035193;28;20077;-67
2023/05/18 04:27:07;;;;;;;8.65;2.78;;;12.60;89.80;;;;;;5041453;28;20510;-67
2023/05/18 04:29:33;;;;;;;9.15;3.05;;;12.60;89.70;;;;;;5041128;28;20047;-67
2023/05/18 04:31:59;;;;;;;10.00;3.13;;;12.70;89.60;;;;;;5057040;28;20017;-67
2023/05/18 04:34:30;;;;;;;8.38;2.47;;;12.50;90.10;;;;;;5069120;28;20053;-67
2023/05/18 04:36:59;;;;;;;8.55;2.92;;;12.50;90.20;;;;;;5054158;28;20025;-67
2023/05/18 04:39:25;;;;;;;8.98;2.97;;;12.50;90.10;;;;;;5052804;28;20043;-67
2023/05/18 04:41:57;;;;;;;8.88;2.90;;;12.50;90.30;;;;;;5039346;28;20029;-67
2023/05/18 04:44:26;;;;;;;6.43;2.67;;;12.50;90.10;;;;;;5043712;28;20036;-67
2023/05/18 04:46:52;;;;;;;10.32;2.78;;;12.40;90.50;;;;;;5051397;28;20427;-67
2023/05/18 04:49:21;;;;;;;8.82;2.63;;;12.50;90.30;;;;;;5033098;28;20029;-67
2023/05/18 04:51:58;;;;;;;9.52;2.80;;;12.50;90.20;;;;;;5032684;28;20037;-67
2023/05/18 04:54:27;;;;;;;5.95;2.53;;;12.60;90.10;;;;;;5040976;28;20029;-67
2023/05/18 04:56:52;;;;;;;9.63;2.85;;;12.60;90.00;;;;;;5037369;28;20029;-67
2023/05/18 04:59:19;;;;;;;9.50;3.22;;;12.60;90.00;;;;;;5051376;28;20029;-67
2023/05/18 05:01:45;;;;;;;9.18;2.70;;;12.60;89.90;;;;;;5053187;28;20022;-67
2023/05/18 05:04:11;;;;;;;8.43;2.75;;;12.60;89.80;;;;;;5052298;28;20039;-67
2023/05/18 05:06:37;;;;;;;7.72;2.75;;;12.60;89.70;;;;;;5046809;28;20606;-67
2023/05/18 05:09:03;;;;;;;7.07;2.97;;;12.60;90.00;;;;;;5052334;28;20749;-67
2023/05/18 05:11:28;;;;;;;11.38;3.15;;;12.60;89.90;;;;;;5052573;28;20120;-67
2023/05/18 05:13:54;;;;;;;7.03;2.38;;;12.60;90.20;;;;;;5052417;28;20111;-66
2023/05/18 05:16:20;;;;;;;6.50;3.10;;;12.60;89.80;;;;;;5048371;28;20047;-67
2023/05/18 05:18:45;;;;;;;7.65;2.75;;;12.70;88.80;;;;;;5038987;28;20128;-67
2023/05/18 05:21:11;;;;;;;9.10;3.45;;;12.70;89.20;;;;;;5032237;28;20490;-67
2023/05/18 05:23:37;;;;;;;9.95;3.28;;;12.70;89.10;;;;;;5049694;28;20037;-67
2023/05/18 05:26:03;;;;;;;11.13;3.47;;;12.60;89.60;;;;;;5036241;28;20040;-68
2023/05/18 05:28:28;;;;;;;9.48;3.55;;;12.70;89.50;;;;;;5052128;28;20036;-67
2023/05/18 05:30:54;;;;;;;5.70;2.70;;;12.70;88.80;;;;;;5052659;28;20029;-67
2023/05/18 05:33:20;;;;;;;8.80;2.95;;;12.70;89.00;;;;;;5052349;28;20381;-67
2023/05/18 05:35:45;;;;;;;9.80;3.20;;;12.70;88.80;;;;;;5056022;28;20028;-67
2023/05/18 05:38:11;;;;;;;9.57;3.65;;;12.70;88.90;;;;;;5056205;28;20108;-67
2023/05/18 05:40:36;;;;;;;8.85;2.80;;;12.70;89.00;;;;;;5052701;28;20052;-67
2023/05/18 05:43:04;;;;;;;9.35;2.78;;;12.70;88.70;;;;;;5046940;28;20025;-67
2023/05/18 05:45:30;;;;;;;7.07;2.90;;;12.70;89.00;;;;;;5035908;28;20112;-67
2023/05/18 05:47:56;;;;;;;10.65;3.25;;;12.70;88.90;;;;;;5036038;28;20434;-67
2023/05/18 05:50:22;;;;;;;8.70;3.40;;;12.70;89.40;;;;;;5035977;28;20021;-67
2023/05/18 05:52:47;;;;;;;10.77;3.53;;;12.70;90.10;;;;;;5035960;28;20101;-67
2023/05/18 05:55:13;;;;;;;10.40;3.53;;;12.80;90.10;;;;;;5035854;28;20033;-67
2023/05/18 05:57:41;;;;;;;8.30;3.15;;;12.80;90.10;;;;;;5049055;28;20095;-67
2023/05/18 06:00:11;;;;;;;9.98;3.65;;;12.90;90.10;;;;;;5055760;28;20086;-67
2023/05/18 06:02:37;;;;;;;9.70;3.30;;;13.00;89.30;;;;;;5044191;28;20056;-68
2023/05/18 06:05:04;;;;;;;8.32;3.25;;;13.00;89.00;;;;;;5048962;28;20486;-67
2023/05/18 06:07:30;;;;;;;9.98;3.42;;;13.10;89.10;;;;;;5042672;28;20363;-67
2023/05/18 06:09:55;;;;;;;8.85;3.60;;;13.20;89.10;;;;;;5035588;28;20029;-67
2023/05/18 06:12:21;;;;;;;9.40;3.45;;;13.20;88.70;;;;;;5035593;28;20430;-67
2023/05/18 06:14:47;;;;;;;8.55;3.20;;;13.30;88.20;;;;;;5035737;28;20057;-67
2023/05/18 06:17:12;;;;;;;10.43;3.20;;;13.40;87.60;;;;;;5043267;28;20054;-67
2023/05/18 06:19:38;;;;;;;11.70;3.83;;;13.50;87.10;;;;;;5058976;28;20537;-67
2023/05/18 06:22:04;;;;;;;11.93;3.53;;;13.50;86.20;;;;;;5052440;28;20021;-69
2023/05/18 06:24:29;;;;;;;6.20;2.95;;;13.60;86.50;;;;;;5052854;28;20078;-67
2023/05/18 06:26:55;;;;;;;9.27;3.25;;;13.60;86.80;;;;;;5043070;28;20036;-67
2023/05/18 06:29:20;;;;;;;11.98;4.00;;;13.70;86.60;;;;;;5041339;28;20022;-71
2023/05/18 06:31:46;;;;;;;12.40;3.72;;;13.80;85.90;;;;;;5035481;28;20220;-69
2023/05/18 06:34:12;;;;;;;11.20;3.55;;;13.80;86.00;;;;;;5034396;28;20025;-72
2023/05/18 06:36:37;;;;;;;13.55;3.53;;;13.80;86.40;;;;;;5035130;28;20576;-69
2023/05/18 06:39:04;;;;;;;10.75;3.55;;;13.90;86.10;;;;;;5035404;28;20026;-71
2023/05/18 06:41:30;;;;;;;11.13;3.65;;;13.90;86.50;;;;;;5035037;28;20164;-71
2023/05/18 06:43:59;;;;;;;11.93;3.70;;;14.00;86.10;;;;;;5037715;28;20045;-71
2023/05/18 06:46:28;;;;;;;10.43;3.13;;;14.00;86.10;;;;;;5042791;28;20390;-67
2023/05/18 06:48:53;;;;;;;10.25;3.53;;;14.10;85.60;;;;;;5054691;28;20048;-67
2023/05/18 06:51:19;;;;;;;6.65;3.35;;;14.20;85.80;;;;;;5054770;28;20114;-68
2023/05/18 06:53:45;;;;;;;11.27;3.75;;;14.20;85.90;;;;;;5040014;28;20021;-67
2023/05/18 06:56:11;;;;;;;10.02;3.53;;;14.30;85.90;;;;;;5050472;28;20390;-68
2023/05/18 06:58:38;;;;;;;14.25;4.18;;;14.40;85.90;;;;;;5037714;28;20036;-69
2023/05/18 07:01:03;;;;;;;7.63;3.40;;;14.50;86.40;;;;;;5039500;28;20106;-71
2023/05/18 07:03:29;;;;;;;9.82;3.63;;;14.50;86.00;;;;;;5032004;28;20158;-70
2023/05/18 07:05:54;;;;;;;13.23;4.15;;;14.60;84.80;;;;;;5043793;28;20025;-72
2023/05/18 07:08:21;;;;;;;8.48;3.33;;;14.70;84.20;;;;;;5038803;28;20433;-69
2023/05/18 07:10:46;;;;;;;10.63;3.50;;;14.70;84.30;;;;;;5048877;28;20450;-70
2023/05/18 07:13:12;;;;;;;8.63;3.58;;;14.80;84.40;;;;;;5050324;28;20495;-72
2023/05/18 07:15:38;;;;;;;9.82;3.50;;;14.90;84.20;;;;;;5036113;28;20034;-70
2023/05/18 07:18:03;;;;;;;8.45;3.53;;;14.90;83.60;;;;;;5037263;28;20088;-73
2023/05/18 07:20:29;;;;;;;7.53;3.70;;;15.00;84.20;;;;;;5041353;28;20016;-68
2023/05/18 07:22:55;;;;;;;12.77;4.18;;;15.10;83.10;;;;;;5071024;28;20103;-73
2023/05/18 07:25:21;;;;;;;9.05;3.30;;;15.10;82.90;;;;;;5066063;28;20044;-74
2023/05/18 07:27:46;;;;;;;8.35;3.95;;;15.20;83.50;;;;;;5052973;28;20506;-69
2023/05/18 07:30:12;;;;;;;7.80;3.28;;;15.20;84.00;;;;;;5055308;28;20052;-69
2023/05/18 07:32:38;;;;;;;11.30;3.90;;;15.30;83.70;;;;;;5073454;28;20025;-74
2023/05/18 07:35:04;;;;;;;9.90;3.25;;;15.40;83.10;;;;;;5065327;28;20386;-70
2023/05/18 07:37:30;;;;;;;7.03;3.53;;;15.50;82.40;;;;;;5061075;28;20036;-70
2023/05/18 07:39:55;;;;;;;9.65;3.70;;;15.50;82.50;;;;;;5073361;28;20037;-68
2023/05/18 07:42:21;;;;;;;9.65;3.85;;;15.70;82.60;;;;;;5073681;28;20056;-69
2023/05/18 07:44:46;;;;;;;8.95;3.53;;;15.70;81.70;;;;;;5058289;28;20072;-70
2023/05/18 07:47:12;;;;;;;12.15;3.63;;;15.80;82.00;;;;;;5052883;28;20021;-71
2023/05/18 07:49:38;;;;;;;6.93;3.38;;;15.90;81.20;;;;;;5060001;28;20032;-71
2023/05/18 07:52:07;;;;;;;9.73;3.70;;;15.90;81.50;;;;;;5043120;28;20025;-70
2023/05/18 07:54:33;;;;;;;11.25;3.90;;;15.90;81.00;;;;;;5048902;28;20437;-70
2023/05/18 07:56:58;;;;;;;10.00;3.63;;;15.90;81.30;;;;;;5042303;28;20470;-72
2023/05/18 07:59:24;;;;;;;8.63;3.53;;;16.00;81.30;;;;;;5034575;28;20041;-70
2023/05/18 08:01:49;;;;;;;10.52;3.75;;;16.00;81.20;;;;;;5038158;28;20094;-69
2023/05/18 08:04:15;;;;;;;11.88;3.97;;;16.10;80.70;;;;;;5038545;28;20025;-67
2023/05/18 08:06:40;;;;;;;7.28;3.22;;;16.20;80.90;;;;;;5033945;28;20022;-67
2023/05/18 08:09:06;;;;;;;10.20;3.75;;;16.20;80.50;;;;;;5042187;28;20021;-67
2023/05/18 08:11:32;;;;;;;8.20;3.78;;;16.30;80.10;;;;;;5039756;28;20394;-68
2023/05/18 08:13:57;;;;;;;10.90;3.80;;;16.30;80.40;;;;;;5041171;28;20033;-73
2023/05/18 08:16:23;;;;;;;8.48;3.75;;;16.40;80.20;;;;;;5043101;28;20025;-70
2023/05/18 08:18:49;;;;;;;9.95;4.35;;;16.50;80.40;;;;;;5034395;28;20414;-70
2023/05/18 08:21:16;;;;;;;9.63;3.78;;;16.50;81.30;;;;;;5038800;28;20529;-74
2023/05/18 08:23:41;;;;;;;10.25;3.78;;;16.50;78.80;;;;;;5037827;28;20108;-72
2023/05/18 08:26:07;;;;;;;8.85;3.72;;;16.50;79.00;;;;;;5035942;28;20115;-71
2023/05/18 08:28:33;;;;;;;6.95;3.20;;;16.60;79.40;;;;;;5032954;28;20532;-68
2023/05/18 08:30:59;;;;;;;11.02;3.60;;;16.60;79.10;;;;;;5042796;28;20040;-74
2023/05/18 08:33:25;;;;;;;10.07;4.13;;;16.70;79.70;;;;;;5041507;28;20468;-70
2023/05/18 08:35:50;;;;;;;10.70;3.90;;;16.70;79.80;;;;;;5032595;28;20389;-68
2023/05/18 08:38:16;;;;;;;9.27;4.35;;;16.80;79.20;;;;;;5035163;28;20076;-71
2023/05/18 08:40:51;;;;;;;10.65;4.07;;;16.80;78.90;;;;;;5047841;28;20020;-67
2023/05/18 08:43:22;;;;;;;10.35;3.83;;;16.80;79.70;;;;;;5040827;28;20020;-66
2023/05/18 08:46:04;;;;;;;11.23;4.20;;;16.80;79.30;;;;;;5044915;28;20037;-66
2023/05/18 08:48:32;;;;;;;10.10;3.95;;;16.80;79.60;;;;;;5037522;28;20099;-66
2023/05/18 08:51:00;;;;;;;11.15;4.25;;;16.90;78.40;;;;;;5041909;28;20032;-66
2023/05/18 08:53:26;;;;;;;10.30;4.18;;;17.00;78.20;;;;;;5041803;28;20155;-66
2023/05/18 08:55:53;;;;;;;10.65;3.55;;;17.00;78.00;;;;;;5034584;28;20104;-73
2023/05/18 08:58:26;;;;;;;14.23;3.97;;;17.00;76.70;;;;;;5045798;28;20109;-68
2023/05/18 09:00:53;;;;;;;11.15;3.90;;;17.10;76.80;;;;;;5045821;28;20026;-69
2023/05/18 09:03:20;;;;;;;7.78;3.45;;;17.10;76.70;;;;;;5038677;28;20504;-68
2023/05/18 09:05:47;;;;;;;8.52;3.67;;;17.20;76.00;;;;;;5039742;28;20260;-69
2023/05/18 09:08:14;;;;;;;11.20;3.60;;;17.10;76.30;;;;;;5042326;28;20104;-69
2023/05/18 09:10:40;;;;;;;8.27;3.35;;;17.10;76.40;;;;;;5043851;28;20037;-67
2023/05/18 09:13:06;;;;;;;14.75;3.28;;;17.10;77.40;;;;;;5056542;28;20040;-68
2023/05/18 09:15:34;;;;;;;9.73;3.38;;;17.20;76.40;;;;;;5042801;28;20437;-68
2023/05/18 09:17:59;;;;;;;8.38;3.30;;;17.10;76.10;;;;;;5054764;28;20100;-68
2023/05/18 09:20:26;;;;;;;9.77;4.03;;;17.20;75.60;;;;;;5041056;28;20534;-68
2023/05/18 09:22:52;;;;;;;9.27;4.25;;;17.20;74.60;;;;;;5049480;28;20023;-68
2023/05/18 09:25:19;;;;;;;10.73;3.90;;;17.20;73.80;;;;;;5052183;28;20036;-68
2023/05/18 09:27:47;;;;;;;10.32;3.97;;;17.20;74.00;;;;;;5052824;28;20053;-68
2023/05/18 09:30:12;;;;;;;10.95;4.05;;;17.20;74.20;;;;;;5040483;28;20036;-68
2023/05/18 09:32:38;;;;;;;10.68;3.67;;;17.20;74.20;;;;;;5050070;28;20112;-68
2023/05/18 09:35:05;;;;;;;10.77;3.92;;;17.20;74.60;;;;;;5059040;28;20028;-68
2023/05/18 09:37:32;;;;;;;11.98;4.32;;;17.20;75.00;;;;;;5057029;28;20034;-68
2023/05/18 09:40:00;;;;;;;8.07;3.42;;;17.20;74.20;;;;;;5043566;28;20462;-69
2023/05/18 09:42:40;;;;;;;10.93;3.70;;;17.20;74.40;;;;;;5048670;28;20021;-69
2023/05/18 09:45:19;;;;;;;14.77;3.92;;;17.30;75.70;;;;;;5037953;28;20048;-70
2023/05/18 09:47:45;;;;;;;8.00;3.33;;;17.30;76.40;;;;;;5040895;28;20111;-69
2023/05/18 09:50:11;;;;;;;9.05;4.00;;;17.30;76.40;;;;;;5041724;28;20493;-69
2023/05/18 09:52:43;;;;;;;9.70;3.67;;;17.30;75.30;;;;;;5045976;28;20068;-69
2023/05/18 09:55:15;;;;;;;8.75;3.50;;;17.40;77.50;;;;;;5048690;28;20115;-70
2023/05/18 09:57:45;;;;;;;5.60;2.70;;;17.40;74.90;;;;;;5047278;28;20132;-69
2023/05/18 10:00:13;;;;;;;12.95;3.50;;;17.40;76.80;;;;;;5053048;28;20122;-69
2023/05/18 10:02:40;;;;;;;9.88;3.35;;;17.40;75.20;;;;;;5041972;28;20048;-70
2023/05/18 10:05:17;;;;;;;9.52;3.10;;;17.40;74.40;;;;;;5043357;28;20037;-69
2023/05/18 10:07:43;;;;;;;10.80;3.78;;;17.50;73.90;;;;;;5036007;28;20407;-70
2023/05/18 10:10:10;;;;;;;7.50;2.92;;;17.40;74.00;;;;;;5048471;28;20045;-68
2023/05/18 10:12:39;;;;;;;8.23;2.80;;;17.40;75.00;;;;;;5043892;28;20044;-73
2023/05/18 10:15:08;;;;;;;8.80;3.75;;;17.40;75.00;;;;;;5045841;28;20488;-71
2023/05/18 10:17:36;;;;;;;7.72;3.13;;;17.50;74.00;;;;;;5038205;28;20018;-70
2023/05/18 10:20:05;;;;;;;9.23;3.25;;;17.50;73.90;;;;;;5045880;28;20166;-72
2023/05/18 10:22:34;;;;;;;7.95;3.25;;;17.50;75.20;;;;;;5052049;28;20020;-72
2023/05/18 10:25:04;;;;;;;8.77;3.33;;;17.50;74.30;;;;;;5037872;28;20390;-68
2023/05/18 10:27:33;;;;;;;8.32;3.90;;;17.50;74.10;;;;;;5047410;28;20094;-68
2023/05/18 10:30:02;;;;;;;7.35;3.38;;;17.50;73.70;;;;;;5052206;28;20102;-68
2023/05/18 10:32:29;;;;;;;8.93;3.83;;;17.50;73.70;;;;;;5047812;28;20474;-70
2023/05/18 10:34:55;;;;;;;9.88;3.60;;;17.50;74.40;;;;;;5043700;28;20151;-69
2023/05/18 10:37:22;;;;;;;10.93;3.10;;;17.50;73.50;;;;;;5038661;28;20041;-69
2023/05/18 10:39:50;;;;;;;8.32;3.20;;;17.50;73.10;;;;;;5042939;28;20707;-70
2023/05/18 10:42:17;;;;;;;8.68;3.88;;;17.50;72.90;;;;;;5041097;28;20052;-69
2023/05/18 10:44:46;;;;;;;9.18;3.70;;;17.50;74.50;;;;;;5054424;28;20067;-70
2023/05/18 10:47:14;;;;;;;10.40;4.13;;;17.50;73.40;;;;;;5043160;28;20030;-70
2023/05/18 10:49:42;;;;;;;10.20;3.45;;;17.60;73.20;;;;;;5056371;28;20024;-70
2023/05/18 10:52:10;;;;;;;11.05;3.58;;;17.60;73.80;;;;;;5053152;28;20021;-70
2023/05/18 10:54:37;;;;;;;12.13;4.22;;;17.60;74.40;;;;;;5039597;28;20160;-70
2023/05/18 10:57:03;;;;;;;9.20;4.35;;;17.60;73.60;;;;;;5042082;28;20124;-70
2023/05/18 10:59:29;;;;;;;10.52;4.53;;;17.50;72.90;;;;;;5035648;28;20170;-68
2023/05/18 11:02:02;;;;;;;13.18;4.50;;;17.60;73.70;;;;;;5043310;28;20484;-68
2023/05/18 11:04:30;;;;;;;13.00;4.07;;;17.60;74.10;;;;;;5048539;28;20049;-70
2023/05/18 11:07:01;;;;;;;8.63;3.67;;;17.60;73.90;;;;;;5046919;28;20017;-70
2023/05/18 11:09:28;;;;;;;8.35;3.60;;;17.60;75.20;;;;;;5048432;28;20075;-70
2023/05/18 11:11:57;;;;;;;10.32;3.80;;;17.60;75.60;;;;;;5053033;28;20025;-70
2023/05/18 11:14:30;;;;;;;9.70;4.00;;;17.60;74.10;;;;;;5041874;28;20031;-71
2023/05/18 11:17:17;;;;;;;11.20;4.07;;;17.70;74.00;;;;;;5038913;28;20029;-70
2023/05/18 11:20:03;;;;;;;13.23;4.45;;;17.70;76.70;;;;;;5045001;28;20070;-71
2023/05/18 11:22:51;;;;;;;11.63;4.15;;;17.70;74.80;;;;;;5042148;28;20036;-70
2023/05/18 11:25:31;;;;;;;9.98;4.15;;;17.70;74.80;;;;;;5048689;28;20478;-71
2023/05/18 11:28:12;;;;;;;9.80;4.32;;;17.70;74.50;;;;;;5046980;28;20064;-71
2023/05/18 11:30:40;;;;;;;13.95;5.10;;;17.70;73.80;;;;;;5044822;28;20033;-71
2023/05/18 11:33:13;;;;;;;8.63;4.00;;;17.70;74.50;;;;;;5045389;28;20067;-72
2023/05/18 11:36:00;;;;;;;10.65;4.63;;;17.70;73.90;;;;;;5037883;28;20060;-71
2023/05/18 11:38:44;;;;;;;7.85;3.80;;;17.70;74.00;;;;;;5038086;28;20048;-71
2023/05/18 11:41:41;;;;;;;10.90;4.75;;;17.60;74.70;;;;;;5036776;28;20057;-72
2023/05/18 11:44:16;;;;;;;10.07;4.32;;;17.60;74.70;;;;;;5043415;28;20534;-71
2023/05/18 11:46:52;;;;;;;9.38;4.30;;;17.70;76.70;;;;;;5036764;28;20026;-71
2023/05/18 11:49:21;;;;;;;11.10;4.20;;;17.70;73.60;;;;;;5043212;28;20017;-70
2023/05/18 11:51:55;;;;;;;8.98;4.18;;;17.70;75.60;;;;;;5040013;28;20036;-70
2023/05/18 11:54:25;;;;;;;8.27;4.38;;;17.70;72.20;;;;;;5053319;28;20032;-69
2023/05/18 11:56:54;;;;;;;10.20;3.95;;;17.70;72.20;;;;;;5040990;28;20139;-68
2023/05/18 11:59:42;;;;;;;10.77;4.53;;;17.70;73.80;;;;;;5039856;28;20030;-68
2023/05/18 12:02:10;;;;;;;8.95;4.38;;;17.70;75.00;;;;;;5052849;28;20030;-68
2023/05/18 12:04:46;;;;;;;12.13;4.00;;;17.80;75.30;;;;;;5046808;28;20043;-68
2023/05/18 12:07:12;;;;;;;9.93;4.07;;;17.80;75.00;;;;;;5054625;28;20025;-69
2023/05/18 12:09:43;;;;;;;12.25;4.60;;;17.80;72.90;;;;;;5049417;28;20028;-69
2023/05/18 12:12:11;;;;;;;11.50;4.38;;;17.80;73.00;;;;;;5050835;28;20017;-70
2023/05/18 12:14:40;;;;;;;11.93;4.95;;;17.80;72.90;;;;;;5048120;28;20059;-69
2023/05/18 12:17:06;;;;;;;8.32;4.40;;;17.80;72.40;;;;;;5055966;28;20082;-69
2023/05/18 12:19:46;;;;;;;8.55;4.00;;;17.80;72.50;;;;;;5052066;28;20024;-69
2023/05/18 12:22:12;;;;;;;7.60;4.10;;;17.80;70.90;;;;;;5033819;28;21005;-68
2023/05/18 12:24:39;;;;;;;9.93;3.72;;;17.80;71.50;;;;;;5036502;28;20494;-69
2023/05/18 12:27:07;;;;;;;10.10;4.32;;;17.90;71.30;;;;;;5037053;28;20053;-69
2023/05/18 12:29:36;;;;;;;11.00;4.45;;;17.80;70.50;;;;;;5038524;28;20032;-69
2023/05/18 12:32:08;;;;;;;8.80;4.03;;;17.80;70.70;;;;;;5038906;28;20036;-69
2023/05/18 12:34:34;;;;;;;;;;;17.70;70.70;;;;;;5037204;28;20065;-70
2023/05/18 12:37:00;;;;;;;9.30;3.65;;;17.70;71.10;;;;;;5042728;28;19952;-69
2023/05/18 12:39:25;;;;;;;8.60;3.85;;;17.80;72.80;;;;;;5033406;28;20029;-71
2023/05/18 12:41:51;;;;;;;11.25;4.88;;;17.80;72.40;;;;;;5035874;28;20052;-69
2023/05/18 12:44:17;;;;;;;13.43;4.95;;;17.80;72.20;;;;;;5036949;28;20124;-69
2023/05/18 12:46:43;;;;;;;10.60;4.60;;;17.90;73.00;;;;;;5036760;28;20077;-69